Time;durP1;ratioP1;P1;durP2;ratioP2;P2;SDS_P1;SDS_P2;PMS_P1;PMS_P2;Temp;Humidity;BMP_temperature;BMP_pressure;BME280_temperature;BME280_humidity;BME280_pressure;Samples;Min_cycle;Max_cycle;Signal;HPM_P1;HPM_P2
2023/10/21 00:00:42;;;;;;;1.53;0.97;;;13.60;98.20;;;;;;5032662;28;20493;-79
2023/10/21 00:03:09;;;;;;;1.63;1.30;;;13.60;98.20;;;;;;5037827;28;20509;-79
2023/10/21 00:05:36;;;;;;;1.50;1.00;;;13.60;98.20;;;;;;5027540;28;20467;-79
2023/10/21 00:08:04;;;;;;;1.57;1.00;;;13.60;98.20;;;;;;5036137;28;20489;-80
2023/10/21 00:10:32;;;;;;;1.57;1.00;;;13.60;98.20;;;;;;5032950;28;20488;-79
2023/10/21 00:13:00;;;;;;;1.60;1.00;;;13.60;98.20;;;;;;5035342;28;20509;-79
2023/10/21 00:15:27;;;;;;;1.50;1.00;;;13.70;98.20;;;;;;5031164;28;20470;-79
2023/10/21 00:17:53;;;;;;;1.53;0.93;;;13.70;98.20;;;;;;5039377;28;20937;-79
2023/10/21 00:20:20;;;;;;;1.70;1.33;;;13.70;98.20;;;;;;5030634;28;20483;-79
2023/10/21 00:22:47;;;;;;;1.57;1.00;;;13.70;98.20;;;;;;5035822;28;20485;-81
2023/10/21 00:25:14;;;;;;;1.50;1.00;;;13.70;98.20;;;;;;5029703;28;20460;-81
2023/10/21 00:27:42;;;;;;;1.60;1.10;;;13.70;98.20;;;;;;5033576;28;20586;-81
2023/10/21 00:30:11;;;;;;;1.60;1.00;;;13.70;98.20;;;;;;5034060;28;20464;-81
2023/10/21 00:32:38;;;;;;;1.60;1.00;;;13.70;98.20;;;;;;5037298;28;20930;-81
2023/10/21 00:35:05;;;;;;;1.57;1.00;;;13.70;98.20;;;;;;5033483;28;20494;-81
2023/10/21 00:37:32;;;;;;;1.57;1.00;;;13.80;98.20;;;;;;5018086;28;20553;-82
2023/10/21 00:39:59;;;;;;;1.60;1.10;;;13.80;98.20;;;;;;5030312;28;20960;-82
2023/10/21 00:42:26;;;;;;;1.57;1.00;;;13.80;98.20;;;;;;5030847;28;20822;-81
2023/10/21 00:44:54;;;;;;;1.50;1.00;;;13.80;98.20;;;;;;5032727;28;20501;-82
2023/10/21 00:47:21;;;;;;;1.53;1.00;;;13.80;98.20;;;;;;5030789;28;20492;-80
2023/10/21 00:49:48;;;;;;;1.57;1.00;;;13.80;98.20;;;;;;5035327;28;20466;-81
2023/10/21 00:52:15;;;;;;;1.60;1.10;;;13.80;98.20;;;;;;5030211;28;20477;-80
2023/10/21 00:54:42;;;;;;;1.60;1.10;;;13.80;98.20;;;;;;5035091;28;20652;-81
2023/10/21 00:57:10;;;;;;;1.60;1.00;;;13.90;98.20;;;;;;5025558;28;20493;-81
2023/10/21 00:59:39;;;;;;;1.60;1.20;;;13.90;98.20;;;;;;5034308;28;20494;-81
2023/10/21 01:02:07;;;;;;;1.60;1.03;;;13.90;98.20;;;;;;5030783;28;20478;-82
2023/10/21 01:04:34;;;;;;;1.57;1.00;;;13.90;98.20;;;;;;5038494;28;20467;-80
2023/10/21 01:07:01;;;;;;;1.50;1.00;;;13.90;98.20;;;;;;5027701;28;20907;-81
2023/10/21 01:09:28;;;;;;;1.60;1.10;;;13.90;98.20;;;;;;5040021;28;20469;-81
2023/10/21 01:11:54;;;;;;;1.60;1.00;;;13.90;98.20;;;;;;5030513;28;20512;-79
2023/10/21 01:14:21;;;;;;;1.57;1.10;;;13.90;98.20;;;;;;5032629;28;20578;-77
2023/10/21 01:16:48;;;;;;;1.60;1.00;;;14.00;98.20;;;;;;5027514;28;20495;-77
2023/10/21 01:19:17;;;;;;;1.53;1.00;;;14.00;98.20;;;;;;5040524;28;20551;-78
2023/10/21 01:21:44;;;;;;;1.50;1.00;;;14.00;98.20;;;;;;5029400;28;20545;-79
2023/10/21 01:24:12;;;;;;;1.60;1.00;;;14.00;98.20;;;;;;5045957;28;20463;-79
2023/10/21 01:26:39;;;;;;;1.60;1.00;;;14.00;98.20;;;;;;5036033;28;21070;-78
2023/10/21 01:29:09;;;;;;;1.60;1.07;;;14.00;98.20;;;;;;5044139;28;20469;-79
2023/10/21 01:31:36;;;;;;;1.60;1.00;;;14.00;98.20;;;;;;5033580;28;20557;-79
2023/10/21 01:34:03;;;;;;;1.60;1.00;;;14.00;98.20;;;;;;5045749;28;20463;-78
2023/10/21 01:36:30;;;;;;;1.50;1.00;;;14.00;98.20;;;;;;5026030;28;20854;-77
2023/10/21 01:38:56;;;;;;;1.60;1.00;;;14.00;98.20;;;;;;5039062;28;20616;-78
2023/10/21 01:41:24;;;;;;;1.60;1.00;;;14.00;98.20;;;;;;5024327;28;20488;-77
2023/10/21 01:43:51;;;;;;;1.60;1.00;;;14.00;98.20;;;;;;5042055;28;20471;-78
2023/10/21 01:46:18;;;;;;;1.60;1.10;;;14.00;98.20;;;;;;5022326;28;20470;-78
2023/10/21 01:48:45;;;;;;;1.60;1.00;;;14.00;98.20;;;;;;5042773;28;20451;-77
2023/10/21 01:51:12;;;;;;;1.57;0.90;;;14.00;98.20;;;;;;5022291;28;20481;-78
2023/10/21 01:53:39;;;;;;;1.60;1.00;;;14.00;98.20;;;;;;5040060;28;20459;-78
2023/10/21 01:56:06;;;;;;;1.60;1.00;;;14.00;98.20;;;;;;5014155;28;20463;-78
2023/10/21 01:58:36;;;;;;;1.50;1.00;;;14.00;98.20;;;;;;5018806;28;20588;-77
2023/10/21 02:01:09;;;;;;;1.87;1.10;;;14.10;98.20;;;;;;5013364;28;20906;-78
2023/10/21 02:03:36;;;;;;;1.60;1.10;;;14.00;98.20;;;;;;5042285;28;20465;-77
2023/10/21 02:06:06;;;;;;;1.57;1.00;;;14.00;98.20;;;;;;5020787;28;20552;-77
2023/10/21 02:08:32;;;;;;;1.60;1.10;;;14.00;98.20;;;;;;5041894;28;20451;-77
2023/10/21 02:10:59;;;;;;;1.57;1.00;;;14.00;98.20;;;;;;5012544;28;21068;-77
2023/10/21 02:13:26;;;;;;;1.60;1.10;;;14.00;98.20;;;;;;5028183;28;21193;-77
2023/10/21 02:15:54;;;;;;;1.60;1.00;;;13.90;98.20;;;;;;5016569;28;20459;-77
2023/10/21 02:18:21;;;;;;;1.57;1.00;;;13.90;98.20;;;;;;5032315;28;21212;-77
2023/10/21 02:20:48;;;;;;;1.53;0.90;;;13.90;98.20;;;;;;5022176;28;20498;-77
2023/10/21 02:23:15;;;;;;;1.53;1.00;;;13.90;98.20;;;;;;5043622;28;20475;-77
2023/10/21 02:25:41;;;;;;;1.50;1.00;;;13.90;98.20;;;;;;5021225;28;20469;-77
2023/10/21 02:28:09;;;;;;;1.57;0.90;;;13.90;98.20;;;;;;5016405;28;20479;-77
2023/10/21 02:30:36;;;;;;;1.60;1.10;;;13.90;98.20;;;;;;5028796;28;20578;-77
2023/10/21 02:33:05;;;;;;;1.60;1.10;;;13.90;98.20;;;;;;5034220;28;20478;-77
2023/10/21 02:35:34;;;;;;;1.60;1.10;;;13.90;98.20;;;;;;5025216;28;20474;-77
2023/10/21 02:38:01;;;;;;;1.53;1.00;;;13.90;98.20;;;;;;5033297;28;20482;-77
2023/10/21 02:40:27;;;;;;;1.57;1.00;;;13.90;98.20;;;;;;5029651;28;20505;-77
2023/10/21 02:42:54;;;;;;;1.57;1.00;;;13.90;98.20;;;;;;5033940;28;20485;-77
2023/10/21 02:45:21;;;;;;;1.57;1.00;;;14.00;98.20;;;;;;5023347;28;20525;-77
2023/10/21 02:47:48;;;;;;;1.50;1.00;;;13.90;98.20;;;;;;5017247;28;20494;-77
2023/10/21 02:50:17;;;;;;;1.53;0.90;;;13.90;98.20;;;;;;5027291;28;20529;-77
2023/10/21 02:52:44;;;;;;;1.60;1.00;;;13.90;98.20;;;;;;5011584;28;20479;-77
2023/10/21 02:55:13;;;;;;;1.60;1.00;;;13.90;98.20;;;;;;5027904;28;20475;-78
2023/10/21 02:57:39;;;;;;;1.60;1.10;;;13.90;98.20;;;;;;5029731;28;20942;-77
2023/10/21 03:00:10;;;;;;;1.57;1.00;;;13.90;98.20;;;;;;5029051;28;20487;-77
2023/10/21 03:02:37;;;;;;;1.57;1.00;;;13.90;98.20;;;;;;5032950;28;20488;-77
2023/10/21 03:05:06;;;;;;;1.53;1.00;;;13.90;98.20;;;;;;5028382;28;20979;-77
2023/10/21 03:07:34;;;;;;;1.57;1.00;;;13.90;98.20;;;;;;5012259;28;21239;-77
2023/10/21 03:10:01;;;;;;;1.60;1.00;;;13.90;98.20;;;;;;5027803;28;21001;-77
2023/10/21 03:12:28;;;;;;;1.50;1.00;;;13.90;98.20;;;;;;5032157;28;20478;-77
2023/10/21 03:14:55;;;;;;;1.60;1.10;;;13.90;98.20;;;;;;5030393;28;20973;-77
2023/10/21 03:17:22;;;;;;;1.57;1.00;;;13.90;98.20;;;;;;5022278;28;20474;-77
2023/10/21 03:19:49;;;;;;;1.57;1.00;;;13.90;98.20;;;;;;5030435;28;20494;-77
2023/10/21 03:22:16;;;;;;;1.57;1.00;;;13.90;98.20;;;;;;5029587;28;20561;-77
2023/10/21 03:24:44;;;;;;;1.57;1.10;;;13.90;98.20;;;;;;5031234;28;20463;-77
2023/10/21 03:27:13;;;;;;;1.50;1.00;;;13.90;98.20;;;;;;5016495;28;20494;-77
2023/10/21 03:29:40;;;;;;;1.60;1.00;;;13.90;98.20;;;;;;5027268;28;20451;-77
2023/10/21 03:32:07;;;;;;;1.60;1.10;;;13.90;98.20;;;;;;5013717;28;20486;-77
2023/10/21 03:34:34;;;;;;;1.60;1.00;;;13.90;98.20;;;;;;5023790;28;20850;-77
2023/10/21 03:37:01;;;;;;;1.70;1.20;;;13.90;98.20;;;;;;5013189;28;21088;-77
2023/10/21 03:39:28;;;;;;;1.57;1.00;;;13.90;98.20;;;;;;5027659;28;20513;-77
2023/10/21 03:41:56;;;;;;;1.60;1.00;;;13.90;98.20;;;;;;5026266;28;20486;-77
2023/10/21 03:44:23;;;;;;;1.50;1.00;;;14.00;98.20;;;;;;5034320;28;20978;-77
2023/10/21 03:46:50;;;;;;;1.60;1.00;;;14.00;98.20;;;;;;5013108;28;20868;-77
2023/10/21 03:49:17;;;;;;;1.53;1.00;;;14.00;98.20;;;;;;5021185;28;20455;-77
2023/10/21 03:51:44;;;;;;;1.60;1.10;;;14.00;98.20;;;;;;5018840;28;20532;-78
2023/10/21 03:54:11;;;;;;;1.60;1.00;;;14.00;98.20;;;;;;5035132;28;20543;-78
2023/10/21 03:56:38;;;;;;;1.60;1.00;;;14.00;98.20;;;;;;5008714;28;20495;-77
2023/10/21 03:59:06;;;;;;;1.57;1.00;;;14.00;98.20;;;;;;5021448;28;20494;-77
2023/10/21 04:01:33;;;;;;;1.57;1.00;;;14.00;98.20;;;;;;5017343;28;20580;-77
2023/10/21 04:04:00;;;;;;;1.50;1.00;;;14.00;98.20;;;;;;5023489;28;20475;-77
2023/10/21 04:06:27;;;;;;;1.60;1.10;;;14.00;98.20;;;;;;5010708;28;20482;-77
2023/10/21 04:08:53;;;;;;;1.57;1.00;;;14.00;98.20;;;;;;5031147;28;20474;-76
2023/10/21 04:11:21;;;;;;;1.53;1.00;;;14.00;98.20;;;;;;5018521;28;20478;-76
2023/10/21 04:13:47;;;;;;;1.60;1.10;;;14.00;98.20;;;;;;5035649;28;20970;-76
2023/10/21 04:16:17;;;;;;;1.53;1.00;;;14.10;98.20;;;;;;5015117;28;21078;-77
2023/10/21 04:18:44;;;;;;;1.50;1.00;;;14.10;98.20;;;;;;5028614;28;20469;-77
2023/10/21 04:21:11;;;;;;;1.57;1.00;;;14.10;98.20;;;;;;5016731;28;20482;-77
2023/10/21 04:23:38;;;;;;;1.60;1.20;;;14.10;98.20;;;;;;5030786;28;20455;-79
2023/10/21 04:26:06;;;;;;;1.60;1.00;;;14.10;98.20;;;;;;5020902;28;20455;-79
2023/10/21 04:28:33;;;;;;;1.53;1.00;;;14.10;98.20;;;;;;5038177;28;20523;-77
2023/10/21 04:31:00;;;;;;;1.60;1.00;;;14.20;98.20;;;;;;5017784;28;20487;-77
2023/10/21 04:33:29;;;;;;;1.60;1.10;;;14.20;98.20;;;;;;5042869;28;20467;-80
2023/10/21 04:35:56;;;;;;;1.57;1.00;;;14.20;98.20;;;;;;5016972;28;20455;-77
2023/10/21 04:38:22;;;;;;;1.57;0.97;;;14.20;98.20;;;;;;5038622;28;20456;-77
2023/10/21 04:40:49;;;;;;;1.60;1.00;;;14.20;98.20;;;;;;5013814;28;20502;-77
2023/10/21 04:43:16;;;;;;;1.60;1.00;;;14.20;98.20;;;;;;5033088;28;20463;-77
2023/10/21 04:45:43;;;;;;;1.60;1.00;;;14.20;98.20;;;;;;5023444;28;20463;-77
2023/10/21 04:48:10;;;;;;;1.60;0.93;;;14.20;98.20;;;;;;5009594;28;20479;-77
2023/10/21 04:50:38;;;;;;;1.57;1.00;;;14.20;98.20;;;;;;5025087;28;20476;-80
2023/10/21 04:53:05;;;;;;;1.60;1.00;;;14.20;98.20;;;;;;5027086;28;20473;-80
2023/10/21 04:55:32;;;;;;;1.57;1.00;;;14.20;98.20;;;;;;5027320;28;20778;-77
2023/10/21 04:57:58;;;;;;;1.60;1.00;;;14.10;98.20;;;;;;5024417;28;20569;-77
2023/10/21 05:00:25;;;;;;;1.60;1.10;;;14.10;98.20;;;;;;5023885;28;20490;-80
2023/10/21 05:02:52;;;;;;;1.60;1.00;;;14.10;98.20;;;;;;5027335;28;20566;-80
2023/10/21 05:05:19;;;;;;;1.60;1.00;;;14.10;98.20;;;;;;5024821;28;20498;-80
2023/10/21 05:07:47;;;;;;;1.60;1.10;;;14.00;98.20;;;;;;5026147;28;20497;-77
2023/10/21 05:10:14;;;;;;;1.53;1.00;;;14.00;98.20;;;;;;5024320;28;20464;-78
2023/10/21 05:12:41;;;;;;;1.60;1.00;;;13.90;98.20;;;;;;5030690;28;20847;-78
2023/10/21 05:15:09;;;;;;;1.60;1.00;;;13.90;98.20;;;;;;5026426;28;20491;-79
2023/10/21 05:17:36;;;;;;;1.60;1.10;;;13.80;98.20;;;;;;5031099;28;20536;-79
2023/10/21 05:20:04;;;;;;;1.53;0.90;;;13.80;98.20;;;;;;5025826;28;20491;-79
2023/10/21 05:22:31;;;;;;;1.50;1.00;;;13.80;98.20;;;;;;5028714;28;20520;-77
2023/10/21 05:25:00;;;;;;;1.60;1.10;;;13.80;98.20;;;;;;5023610;28;20910;-77
2023/10/21 05:27:26;;;;;;;1.60;1.10;;;13.80;98.20;;;;;;5023378;28;20505;-77
2023/10/21 05:29:53;;;;;;;1.60;1.10;;;13.70;98.20;;;;;;5025221;28;20465;-79
2023/10/21 05:32:20;;;;;;;1.57;1.00;;;13.70;98.20;;;;;;5026836;28;20478;-79
2023/10/21 05:34:47;;;;;;;1.57;1.00;;;13.80;98.20;;;;;;5028863;28;20467;-79
2023/10/21 05:37:14;;;;;;;1.57;1.00;;;13.80;98.20;;;;;;5020699;28;20569;-77
2023/10/21 05:39:42;;;;;;;1.50;1.00;;;13.80;98.20;;;;;;5029109;28;20491;-78
2023/10/21 05:42:11;;;;;;;1.60;1.00;;;13.80;98.20;;;;;;5026181;28;20490;-80
2023/10/21 05:44:37;;;;;;;1.53;1.00;;;13.90;98.20;;;;;;5031501;28;20848;-79
2023/10/21 05:47:05;;;;;;;1.60;1.00;;;13.90;98.20;;;;;;5018915;28;20808;-77
2023/10/21 05:49:31;;;;;;;1.60;1.00;;;14.00;98.20;;;;;;5025262;28;20558;-76
2023/10/21 05:51:58;;;;;;;1.60;1.00;;;14.00;98.20;;;;;;5020163;28;20489;-76
2023/10/21 05:54:25;;;;;;;1.57;1.00;;;14.00;98.20;;;;;;5026262;28;20472;-76
2023/10/21 05:56:52;;;;;;;1.53;1.00;;;14.00;98.20;;;;;;5017101;28;20478;-76
2023/10/21 05:59:20;;;;;;;1.60;1.00;;;14.10;98.20;;;;;;5029509;28;20475;-76
2023/10/21 06:01:47;;;;;;;1.60;1.00;;;14.10;98.20;;;;;;5021284;28;20539;-76
2023/10/21 06:04:14;;;;;;;1.57;1.07;;;14.10;98.20;;;;;;5032783;28;20463;-76
2023/10/21 06:06:41;;;;;;;1.50;1.00;;;14.20;98.20;;;;;;5020872;28;20483;-76
2023/10/21 06:09:09;;;;;;;1.60;1.00;;;14.20;98.20;;;;;;5035255;28;20937;-78
2023/10/21 06:11:36;;;;;;;1.60;1.00;;;14.20;98.20;;;;;;5021516;28;20572;-77
2023/10/21 06:14:03;;;;;;;1.60;1.10;;;14.20;98.20;;;;;;5035731;28;20467;-78
2023/10/21 06:16:31;;;;;;;1.60;1.00;;;14.20;98.20;;;;;;5022853;28;20505;-77
2023/10/21 06:18:58;;;;;;;1.60;1.00;;;14.20;98.20;;;;;;5033036;28;20464;-77
2023/10/21 06:21:24;;;;;;;1.60;1.10;;;14.30;98.20;;;;;;5019214;28;20486;-77
2023/10/21 06:23:51;;;;;;;1.57;1.03;;;14.30;98.20;;;;;;5037969;28;20970;-78
2023/10/21 06:26:18;;;;;;;1.60;1.10;;;14.30;98.20;;;;;;5018863;28;20478;-77
2023/10/21 06:28:45;;;;;;;1.57;0.90;;;14.30;98.20;;;;;;5030634;28;20477;-78
2023/10/21 06:31:12;;;;;;;1.60;1.10;;;14.30;98.20;;;;;;5021204;28;20581;-78
2023/10/21 06:33:40;;;;;;;1.53;1.00;;;14.30;98.20;;;;;;5032707;28;20471;-77
2023/10/21 06:36:07;;;;;;;1.60;1.00;;;14.30;98.20;;;;;;5015736;28;20455;-77
2023/10/21 06:38:34;;;;;;;1.60;0.97;;;14.30;98.20;;;;;;5020099;28;20460;-77
2023/10/21 06:41:02;;;;;;;1.57;1.00;;;14.40;98.20;;;;;;5016996;28;20490;-77
2023/10/21 06:43:29;;;;;;;1.57;1.00;;;14.40;98.20;;;;;;5037514;28;20451;-78
2023/10/21 06:45:55;;;;;;;1.57;1.00;;;14.40;98.20;;;;;;5018402;28;20470;-78
2023/10/21 06:48:22;;;;;;;1.53;1.00;;;14.40;98.20;;;;;;5039525;28;20471;-78
2023/10/21 06:50:51;;;;;;;1.60;1.00;;;14.40;98.20;;;;;;5017796;28;20475;-78
2023/10/21 06:53:17;;;;;;;1.60;1.00;;;14.50;98.20;;;;;;5035848;28;20460;-77
2023/10/21 06:55:45;;;;;;;1.60;0.90;;;14.50;98.20;;;;;;5024356;28;20486;-78
2023/10/21 06:58:12;;;;;;;1.60;1.00;;;14.50;98.20;;;;;;5023789;28;20489;-77
2023/10/21 07:00:39;;;;;;;1.60;1.00;;;14.60;98.20;;;;;;5027589;28;20509;-78
2023/10/21 07:03:06;;;;;;;1.60;1.10;;;14.50;98.20;;;;;;5030175;28;20515;-78
2023/10/21 07:05:34;;;;;;;1.53;0.97;;;14.60;98.20;;;;;;5025594;28;20459;-77
2023/10/21 07:08:03;;;;;;;1.60;1.00;;;14.60;98.20;;;;;;5032825;28;20477;-78
2023/10/21 07:10:30;;;;;;;1.60;1.00;;;14.60;98.20;;;;;;5027249;28;20475;-78
2023/10/21 07:12:58;;;;;;;1.60;1.10;;;14.60;98.20;;;;;;5030429;28;20821;-77
2023/10/21 07:15:27;;;;;;;1.60;1.00;;;14.60;98.20;;;;;;5027516;28;20981;-78
2023/10/21 07:17:54;;;;;;;1.60;1.00;;;14.60;98.20;;;;;;5028065;28;20482;-77
2023/10/21 07:20:22;;;;;;;1.60;1.00;;;14.60;98.20;;;;;;5024803;28;20487;-78
2023/10/21 07:22:49;;;;;;;1.60;1.00;;;14.60;98.20;;;;;;5026835;28;20482;-78
2023/10/21 07:25:18;;;;;;;1.60;1.00;;;14.60;98.20;;;;;;5024605;28;20554;-78
2023/10/21 07:27:45;;;;;;;1.60;1.00;;;14.60;98.20;;;;;;5032761;28;20477;-78
2023/10/21 07:30:12;;;;;;;1.53;1.00;;;14.70;98.20;;;;;;5025680;28;21054;-78
2023/10/21 07:32:39;;;;;;;1.60;1.00;;;14.70;98.20;;;;;;5031226;28;20482;-78
2023/10/21 07:35:07;;;;;;;1.60;0.93;;;14.70;98.20;;;;;;5026735;28;20459;-79
2023/10/21 07:37:34;;;;;;;1.60;1.00;;;14.70;98.20;;;;;;5023621;28;20561;-78
2023/10/21 07:40:01;;;;;;;1.60;1.00;;;14.70;98.20;;;;;;5024041;28;20594;-78
2023/10/21 07:42:29;;;;;;;1.60;1.10;;;14.80;98.20;;;;;;5026042;28;20565;-79
2023/10/21 07:44:56;;;;;;;1.60;1.00;;;14.80;98.20;;;;;;5028490;28;20455;-79
2023/10/21 07:47:24;;;;;;;1.60;1.00;;;14.80;98.20;;;;;;5022713;28;20918;-78
2023/10/21 07:49:51;;;;;;;1.60;1.00;;;14.80;98.20;;;;;;5030327;28;20467;-78
2023/10/21 07:52:18;;;;;;;1.60;1.00;;;14.90;98.20;;;;;;5022946;28;20829;-79
2023/10/21 07:54:45;;;;;;;1.60;1.00;;;14.90;98.20;;;;;;5028372;28;20458;-79
2023/10/21 07:57:12;;;;;;;1.60;1.00;;;14.90;98.20;;;;;;5024917;28;20492;-78
2023/10/21 07:59:40;;;;;;;1.60;1.00;;;14.90;98.20;;;;;;5031405;28;20510;-78
2023/10/21 08:02:07;;;;;;;1.60;1.00;;;14.90;98.20;;;;;;5014880;28;20492;-79
2023/10/21 08:04:33;;;;;;;1.60;1.00;;;14.90;98.20;;;;;;5023167;28;20735;-79
2023/10/21 08:07:00;;;;;;;1.60;1.00;;;15.00;98.20;;;;;;5017624;28;20474;-78
2023/10/21 08:09:27;;;;;;;1.60;1.03;;;15.00;98.20;;;;;;5024897;28;20491;-79
2023/10/21 08:11:54;;;;;;;1.60;1.00;;;15.10;98.20;;;;;;5022584;28;20482;-78
2023/10/21 08:14:21;;;;;;;1.57;1.00;;;15.20;98.20;;;;;;5031631;28;20468;-78
2023/10/21 08:16:49;;;;;;;1.60;1.00;;;15.30;98.20;;;;;;5020775;28;20470;-78
2023/10/21 08:19:16;;;;;;;1.60;1.00;;;15.40;98.20;;;;;;5029381;28;20512;-78
2023/10/21 08:21:43;;;;;;;1.60;1.00;;;15.40;98.20;;;;;;5015311;28;20623;-78
2023/10/21 08:26:52;;;;;;;1.60;1.00;;;15.70;98.20;;;;;;5014482;28;20616;-80
2023/10/21 08:29:20;;;;;;;1.60;1.00;;;15.70;98.20;;;;;;5023699;28;20837;-79
2023/10/21 08:31:48;;;;;;;1.60;1.00;;;15.70;98.20;;;;;;5019278;28;20820;-79
2023/10/21 08:34:15;;;;;;;1.60;1.10;;;15.60;98.20;;;;;;5027387;28;20493;-79
2023/10/21 08:36:43;;;;;;;1.60;1.00;;;15.60;98.20;;;;;;5016754;28;20486;-79
2023/10/21 08:39:11;;;;;;;1.60;0.97;;;15.60;98.20;;;;;;5029147;28;20485;-80
2023/10/21 08:41:39;;;;;;;1.57;0.90;;;15.50;98.20;;;;;;5013220;28;20483;-80
2023/10/21 08:44:07;;;;;;;1.60;1.00;;;15.50;98.20;;;;;;5025684;28;20495;-79
2023/10/21 08:46:35;;;;;;;1.60;1.00;;;15.50;98.20;;;;;;5013590;28;21063;-79
2023/10/21 08:49:04;;;;;;;1.57;0.97;;;15.50;98.20;;;;;;5025272;28;20467;-79
2023/10/21 08:51:33;;;;;;;1.53;1.00;;;15.50;98.20;;;;;;5016542;28;20490;-80
2023/10/21 08:54:01;;;;;;;1.53;1.00;;;15.50;98.20;;;;;;5028881;28;20487;-80
2023/10/21 08:56:28;;;;;;;1.60;1.00;;;15.50;98.20;;;;;;5015991;28;20486;-80
2023/10/21 08:58:56;;;;;;;1.60;1.00;;;15.50;98.20;;;;;;5026304;28;21050;-77
2023/10/21 09:01:24;;;;;;;1.60;1.00;;;15.50;98.20;;;;;;5012122;28;20579;-78
2023/10/21 09:03:51;;;;;;;1.60;1.10;;;15.50;98.20;;;;;;5029106;28;20471;-77
2023/10/21 09:06:19;;;;;;;1.53;0.93;;;15.50;98.20;;;;;;5012817;28;20938;-77
2023/10/21 09:08:48;;;;;;;1.60;1.00;;;15.50;98.20;;;;;;5027086;28;20598;-78
2023/10/21 09:11:18;;;;;;;1.60;1.00;;;15.60;98.20;;;;;;5011698;28;20923;-79
2023/10/21 09:13:45;;;;;;;1.53;1.00;;;15.70;98.20;;;;;;5032764;28;20471;-78
2023/10/21 09:16:23;;;;;;;1.60;1.00;;;15.80;98.20;;;;;;5008733;28;20985;-79
2023/10/21 09:18:58;;;;;;;1.60;1.10;;;16.00;98.20;;;;;;5014907;28;20467;-78
2023/10/21 09:21:38;;;;;;;1.60;1.00;;;16.20;98.20;;;;;;5014071;28;20482;-78
2023/10/21 09:24:06;;;;;;;1.60;1.00;;;16.40;98.20;;;;;;5029485;28;20505;-81
2023/10/21 09:26:34;;;;;;;1.60;0.93;;;16.50;98.20;;;;;;5012298;28;21084;-79
2023/10/21 09:29:11;;;;;;;1.60;1.00;;;16.70;98.20;;;;;;5025338;28;20562;-78
2023/10/21 09:31:57;;;;;;;1.60;1.00;;;16.90;98.20;;;;;;5015285;28;20821;-79
2023/10/21 09:34:25;;;;;;;1.60;0.90;;;17.10;98.20;;;;;;5026103;28;20475;-79
2023/10/21 09:36:55;;;;;;;1.60;0.90;;;17.20;98.20;;;;;;5021186;28;20486;-79
2023/10/21 09:39:25;;;;;;;1.60;0.93;;;17.20;98.20;;;;;;5028864;28;20524;-79
2023/10/21 09:41:52;;;;;;;1.60;0.90;;;17.20;98.20;;;;;;5020010;28;20479;-78
2023/10/21 09:44:20;;;;;;;1.60;0.90;;;17.30;98.20;;;;;;5029629;28;20525;-78
2023/10/21 09:46:49;;;;;;;1.60;1.00;;;17.40;98.20;;;;;;5018146;28;20893;-78
2023/10/21 09:49:17;;;;;;;1.60;0.90;;;17.40;98.20;;;;;;5026542;28;20545;-78
2023/10/21 09:51:53;;;;;;;1.60;0.97;;;17.50;98.20;;;;;;5019874;28;20513;-79
2023/10/21 09:54:30;;;;;;;1.60;1.00;;;17.50;98.20;;;;;;5027901;28;20470;-77
2023/10/21 09:56:58;;;;;;;1.57;0.90;;;17.50;98.20;;;;;;5023414;28;20489;-78
2023/10/21 09:59:26;;;;;;;1.60;0.90;;;17.50;98.20;;;;;;5028444;28;20568;-77
2023/10/21 10:01:53;;;;;;;1.60;1.00;;;17.60;98.20;;;;;;5019199;28;20837;-78
2023/10/21 10:04:23;;;;;;;1.57;0.90;;;17.70;98.20;;;;;;5029229;28;20459;-78
2023/10/21 10:06:58;;;;;;;1.60;1.00;;;17.80;98.20;;;;;;5021047;28;20503;-78
2023/10/21 10:09:27;;;;;;;1.60;0.90;;;17.90;98.20;;;;;;5028709;28;20468;-79
2023/10/21 10:11:58;;;;;;;1.60;0.90;;;18.10;98.20;;;;;;5025631;28;21007;-79
2023/10/21 10:14:26;;;;;;;1.60;0.93;;;18.30;98.20;;;;;;5032187;28;20471;-79
2023/10/21 10:16:53;;;;;;;1.60;1.00;;;18.40;98.20;;;;;;5019505;28;20489;-78
2023/10/21 10:19:39;;;;;;;1.60;0.97;;;18.60;98.20;;;;;;5025357;28;20499;-79
2023/10/21 10:22:19;;;;;;;1.60;0.90;;;18.70;98.20;;;;;;5021483;28;20486;-79
2023/10/21 10:24:55;;;;;;;1.60;0.90;;;18.70;98.20;;;;;;5027260;28;20471;-78
2023/10/21 10:27:25;;;;;;;1.60;0.90;;;18.80;98.20;;;;;;5018646;28;20510;-78
2023/10/21 10:29:53;;;;;;;1.60;0.90;;;18.80;98.20;;;;;;5024248;28;20475;-78
2023/10/21 10:32:20;;;;;;;1.60;1.00;;;18.80;98.20;;;;;;5021427;28;21091;-80
2023/10/21 10:34:53;;;;;;;1.50;0.90;;;18.60;98.20;;;;;;5024530;28;20567;-78
2023/10/21 10:37:31;;;;;;;1.60;1.00;;;18.50;98.20;;;;;;5021085;28;20506;-79
2023/10/21 10:40:05;;;;;;;1.60;1.00;;;18.40;98.20;;;;;;5022264;28;20907;-78
2023/10/21 10:42:34;;;;;;;1.50;1.00;;;18.30;98.20;;;;;;5022122;28;20498;-78
2023/10/21 10:45:03;;;;;;;1.53;0.90;;;18.40;98.20;;;;;;5023650;28;20545;-78
2023/10/21 10:47:29;;;;;;;1.57;0.90;;;18.30;98.20;;;;;;5020286;28;20494;-78
2023/10/21 10:49:57;;;;;;;1.50;0.90;;;18.10;98.20;;;;;;5023463;28;20893;-80
2023/10/21 10:52:31;;;;;;;1.60;1.00;;;18.10;98.20;;;;;;5025383;28;20489;-79
2023/10/21 10:54:59;;;;;;;1.57;0.93;;;18.10;98.20;;;;;;5025702;28;20966;-78
2023/10/21 10:57:28;;;;;;;1.57;0.90;;;18.20;98.20;;;;;;5018249;28;20500;-78
2023/10/21 10:59:55;;;;;;;1.50;0.90;;;18.40;98.20;;;;;;5024273;28;20463;-78
2023/10/21 11:02:24;;;;;;;1.53;1.00;;;18.50;98.20;;;;;;5016445;28;21004;-77
2023/10/21 11:04:51;;;;;;;1.57;0.90;;;18.60;98.20;;;;;;5025499;28;20976;-78
2023/10/21 11:07:20;;;;;;;1.53;0.90;;;18.70;98.20;;;;;;5023533;28;20730;-78
2023/10/21 11:09:58;;;;;;;1.50;0.90;;;18.80;98.20;;;;;;5026485;28;20459;-78
2023/10/21 11:12:27;;;;;;;1.50;0.93;;;18.70;98.20;;;;;;5018164;28;20478;-79
2023/10/21 11:14:54;;;;;;;1.53;0.90;;;18.80;98.20;;;;;;5022592;28;20455;-78
2023/10/21 11:17:21;;;;;;;1.57;0.97;;;18.90;98.20;;;;;;5022262;28;20570;-78
2023/10/21 11:19:48;;;;;;;1.53;0.90;;;19.00;98.20;;;;;;5028436;28;20487;-78
2023/10/21 11:22:21;;;;;;;1.53;0.90;;;19.10;98.20;;;;;;5023294;28;20515;-79
2023/10/21 11:24:48;;;;;;;1.57;0.90;;;19.10;98.20;;;;;;5029424;28;20603;-78
2023/10/21 11:27:16;;;;;;;1.53;0.93;;;19.20;98.20;;;;;;5023349;28;20482;-79
2023/10/21 11:29:45;;;;;;;1.57;0.93;;;19.10;98.20;;;;;;5027855;28;20474;-79
2023/10/21 11:32:12;;;;;;;1.50;1.00;;;19.00;97.70;;;;;;5021071;28;20537;-79
2023/10/21 11:34:39;;;;;;;1.50;0.90;;;19.00;98.20;;;;;;5026479;28;20467;-79
2023/10/21 11:37:07;;;;;;;1.60;0.90;;;19.00;98.20;;;;;;5019183;28;20486;-80
2023/10/21 11:39:34;;;;;;;1.53;0.90;;;19.00;98.20;;;;;;5025997;28;20455;-79
2023/10/21 11:42:01;;;;;;;1.60;1.00;;;19.00;98.20;;;;;;5020347;28;20569;-78
2023/10/21 11:44:30;;;;;;;1.53;0.90;;;19.10;97.50;;;;;;5028854;28;20498;-78
2023/10/21 11:47:03;;;;;;;1.50;0.90;;;19.10;98.20;;;;;;5020800;28;20475;-80
2023/10/21 11:49:33;;;;;;;1.50;0.90;;;19.10;96.40;;;;;;5027381;28;20470;-80
2023/10/21 11:52:01;;;;;;;1.50;0.90;;;19.20;95.40;;;;;;5019210;28;20509;-81
2023/10/21 11:54:35;;;;;;;1.57;0.90;;;19.30;96.30;;;;;;5024519;28;20840;-80
2023/10/21 12:08:51;;;;;;;1.53;0.90;;;18.80;95.50;;;;;;5018535;28;20969;-79
2023/10/21 12:11:14;;;;;;;1.50;0.90;;;18.80;96.70;;;;;;5014273;28;20590;-79
2023/10/21 12:16:54;;;;;;;1.57;1.00;;;18.80;95.70;;;;;;5009587;28;20483;-79
2023/10/21 12:19:45;;;;;;;1.50;0.90;;;18.90;95.90;;;;;;5017278;28;20470;-78
2023/10/21 12:25:47;;;;;;;1.53;0.90;;;18.70;97.00;;;;;;4981014;28;20632;-78
2023/10/21 12:29:11;;;;;;;1.50;1.00;;;18.50;96.60;;;;;;5026004;28;20595;-79
2023/10/21 12:39:44;;;;;;;1.53;0.90;;;18.70;95.30;;;;;;5027891;28;20465;-79
2023/10/21 12:42:21;;;;;;;1.57;0.90;;;18.90;94.60;;;;;;5015857;28;20709;-80
2023/10/21 12:44:54;;;;;;;1.50;0.90;;;19.00;93.50;;;;;;5024671;28;20909;-77
2023/10/21 12:47:21;;;;;;;1.50;0.90;;;19.10;91.90;;;;;;5017437;28;20483;-79
2023/10/21 12:49:50;;;;;;;1.57;0.90;;;19.10;91.30;;;;;;5021570;28;20535;-78
2023/10/21 12:52:18;;;;;;;1.50;0.90;;;19.20;91.70;;;;;;5021667;28;20946;-78
2023/10/21 12:54:45;;;;;;;1.53;0.90;;;19.20;90.90;;;;;;5026401;28;20471;-79
2023/10/21 12:57:14;;;;;;;1.50;0.90;;;19.10;91.60;;;;;;5026384;28;20877;-80
2023/10/21 12:59:41;;;;;;;1.50;0.90;;;19.10;91.60;;;;;;5026670;28;20467;-79
2023/10/21 13:02:10;;;;;;;1.50;0.90;;;19.00;91.20;;;;;;5024761;28;20831;-79
2023/10/21 13:04:38;;;;;;;1.57;1.00;;;19.00;92.20;;;;;;5031232;28;20471;-78
2023/10/21 13:07:06;;;;;;;1.70;1.30;;;19.00;91.60;;;;;;5025116;28;20521;-80
2023/10/21 13:09:37;;;;;;;1.50;0.93;;;19.10;90.90;;;;;;5033441;28;20521;-79
2023/10/21 13:12:09;;;;;;;1.50;0.90;;;19.10;91.90;;;;;;5025203;28;20580;-80
2023/10/21 13:14:38;;;;;;;1.50;0.90;;;19.10;92.10;;;;;;5032522;28;20463;-80
2023/10/21 13:17:08;;;;;;;1.50;0.90;;;19.10;91.60;;;;;;5025958;28;20478;-79
2023/10/21 13:19:35;;;;;;;1.50;0.90;;;19.10;90.70;;;;;;5029613;28;20982;-80
2023/10/21 13:22:05;;;;;;;1.50;0.90;;;19.00;90.70;;;;;;5022111;28;20576;-80